首页
METAR-TAF:

METAR-TAF

机场 :

Chièvres, 比利时

纬度: 50-34N, 经度: 003-50E, 海拔: 60米

当前天气观测

该预报发布于34分钟前的19:25 UTC
风速12节,风向南转西南
温度 7°C
湿度 76%
气压 1026 hPa
能见度10公里或以上

METAR: EBCV 211925Z AUTO 21012KT 9999 BKN036/// 07/03 Q1026 BLU

时间: 20:59 (19:59 UTC)

预报

该预报发布于4小时和18分钟前的15:41 UTC
预报有效从21日的 19点(UTC)到 22日的 07点(UTC)
风速12节,风向西南
能见度10公里或以上
散云层高于2500英尺
多云层高于10000英尺
成为
从 21日的 20点(UTC)到 21日的 22点(UTC)
风速18节,风向西南,有时为30节阵风
少量云层高于2800英尺
多云层高于12000英尺
成为
从 22日的 04点(UTC)到 22日的 06点(UTC)
多云层高于2200英尺
多云层高于8000英尺
几率 30% :
短暂存在
从 22日的 05点(UTC)到 22日的 07点(UTC)
风速20节,风向西南,有时为35节阵风
能見度: 6000
多云层高于1800英尺
阴天层高于2500英尺
小雨

TAF: EBCV 211541Z 2119/2207 22012KT 9999 SCT025 BKN100 BECMG 2120/2122 22018G30KT FEW028 BKN120 BECMG 2204/2206 BKN022 BKN080 PROB30 TEMPO 2205/2207 23020G35KT 6000 -RA BKN018 OVC025 BY EBWM

超过4000个机场的气象观测和天气预报(METAR&TAF报告)。

可查询的气象台以黄色和红色小点在地图上表示。

将鼠标移到小点上方,可查看气象台名称。

然后点击查看天气观测和预报。

如需切换地图:点击带黑十字的绿色按钮放大地图;点击带横线的绿色按钮缩小地图;或者点击绿色箭头查看邻近地区的地图。


METAR-TAF: